AirNav   $300 off a Bose A20
 
 1138 users online  

1LL9 Reyhan Heliport
Loami, Illinois, USA

GOING TO LOAMI?


FAA INFORMATION EFFECTIVE 18 JULY 2019

Location

FAA Identifier: 1LL9
Lat/Long: 39-40-39.1850N / 089-48-18.3700W
39-40.653083N / 089-48.306167W
39.6775514 / -89.8051028
(estimated)
Elevation: 600 ft. / 183 m (estimated)
Variation: 01E (1985)
From city: 2 miles E of LOAMI, IL
Time zone: UTC -5 (UTC -6 during Standard Time)
Zip code: 62661

Heliport Operations

Heliport use: Private use. Permission required prior to landing
Activation date: 08/1974
Control tower: no
ARTCC: KANSAS CITY CENTER
FSS: SAINT LOUIS FLIGHT SERVICE STATION
Attendance: 
Segmented circle: no

Heliport Communications

WX ASOS at SPI (12 nm NE): PHONE 217-535-1444

Nearby radio navigation aids

VOR radial/distance  VOR name  Freq  Var
SPIr212/11.4SPINNER VORTAC112.7001W

 
NDB name  Hdg/Dist  Freq  Var  ID
HUSKK201/6.138201WSP ... .--.
CALDE235/12.124001WCJ -.-. .---
ABRAHAM217/36.132900EAAA .- .- .-

Heliport Services

Runway Information

Helipad H1

Dimensions: 60 x 40 ft. / 18 x 12 m
Surface: turf
Latitude: 39-40.653083N
Longitude: 089-48.306167W
Elevation: 600.0 ft.
Traffic pattern: leftleft

Heliport Ownership and Management from official FAA records

Ownership: Privately-owned
Manager: AL REYHAN
2100 E. MOFFAT AVE.
SPRINGFIELD, IL 62702
Phone 217-544-9871

Additional Remarks

FOR CD CTC KANSAS CITY ARTCC AT 913-254-8508.

Instrument Procedures

There are no published instrument procedures at 1LL9.

Some nearby airports with instrument procedures:

KSPI - Abraham Lincoln Capital Airport (12 nm NE)
KIJX - Jacksonville Municipal Airport (21 nm W)
KTAZ - Taylorville Municipal Airport (24 nm E)
3LF - Litchfield Municipal Airport (31 nm S)
KAAA - Logan County Airport (36 nm NE)
 
Loc | Ops | Rwys | IFR | FBO | Links
Com | Nav | Svcs | Stats | Notes
Area around 1LL9 (Reyhan Heliport)
 
Road maps at: MapQuest Bing Google
 
Aerial photo
No photo
 
Sectional chart

 
Airport distance calculator
Flying to Reyhan Heliport? Find the distance to fly.

From to 1LL9

Sunrise and sunset
Times for 21-Jul-2019
 Local
(UTC-5)
 Zulu
(UTC)
Morning civil twilight05:1910:19
Sunrise05:5010:50
Sunset20:2101:21
Evening civil twilight20:5301:53

Current date and time
Zulu (UTC)  21-Jul-2019 22:24:31
Local (UTC-5)  21-Jul-2019 17:24:31
 
METAR
KSPI 
12nm NE 
212152Z 33009KT 10SM SCT080 31/23 A2991 RMK AO2 SLP123 T03060228
KIJX 
20nm W 
212155Z AUTO 33009KT 10SM SCT036 SCT044 SCT050 28/24 A2992 RMK AO2 T02840235
KTAZ 
23nm E 
212155Z AUTO 34010KT 10SM SCT029 BKN090 BKN110 31/24 A2991 RMK AO2 T03080236
TAF
KSPI 
12nm NE 
211740Z 2118/2218 30007KT P6SM VCSH BKN015 FM212000 31007KT P6SM VCSH SCT015 BKN050 FM220600 04006KT P6SM VCSH BKN050 FM221200 01007KT P6SM BKN060
NOTAMs
Click for the latest NOTAMs
NOTAMs are issued by the DoD/FAA and will open in a separate window not controlled by AirNav.

 

 
 

Would you like to see your business listed on this page?

 If your business provides an interesting product or service to pilots, flight crews, aircraft, or users of the Reyhan Heliport, you should consider listing it here.  To start the listing process, click on the button below
 
Add a business
 

Other Pages about Reyhan Heliport

Update a link
 
Copyright © AirNav, LLC. All rights reserved. Privacy Policy  Contact